CYDP/YDP METAR and TAF weather

Enter ICAO airport designator
Station Type Date Time Source
CYDP METAR 2019/12/13 00:00 UTC NOAA

CYDP 130000Z 30034G41KT 15SM -SN DRSN BKN020 OVC080 M15/M18 A2979 RMK SC5AS3 LAST STAFFED OB/ NEXT 130900 SLP089


Station Type Date Time Source
CYDP Decoded METAR 2019/12/13 00:00 UTC NOAA

Nain, Nfld, Canada (CYDP) 56-33N 061-41W 7M
Dec 12, 2019 - 07:00 PM EST / 2019.12.13 0000 UTC
Wind: from the WNW (300 degrees) at 39 MPH (34 KT) gusting to 47 MPH (41 KT):0
Visibility: 15 mile(s):0
Sky conditions: overcast
Weather: light snow; low drifting snow
Temperature: 5 F (-15 C)
Windchill: -22 F (-30 C):2
Dew Point: 0 F (-18 C)
Relative Humidity: 77%
Pressure (altimeter): 29.79 in. Hg (1008 hPa)
ob: CYDP 130000Z 30034G41KT 15SM -SN DRSN BKN020 OVC080 M15/M18 A2979 RMK SC5AS3 LAST STAFFED OB/ NEXT 130900 SLP089
cycle: 0

Station Type Date Time Source
CYDP TAF 2019/12/12 20:00 UTC NOAA

TAF CYDP 121938Z 1220/1224 29030G40KT P6SM SCT020 BKN100
TEMPO 1220/1224 5SM -SHSN BLSN BKN020
RMK NXT FCST WILL BE ISSUED AT 131045Z

Example: see airport list